Escondido, California
Current Conditions -  °F | °C
As of 1:53 AM on Friday 31 Oct 2014 (Local Time) from KRNM Reporting Station
Overcast Overcast  
Wind Chill: 61°   Ceiling: 1000
Heat Index: 61°   Visibility: 7mi
Dew Point: 57°   Wind: 3mph
Humidity: 87%   Direction: 140°SE
Pressure: 29.98"   Gusts: NA
Location:  33.12°N, 117.08°W
Report Text: KRNM 310853Z AUTO 14003KT 7SM OVC010 16/14 A2998 RMK AO2 SLP137 T01610139 58005 TSNO $
Loading
Personal Weather Stations






























Interactive Weather Map
Tropical Storm Tracking
New forecast layout! Learn more

10-Day Weather Forecast

Advertisements
Track Severe Weather on mobile